createdAt,value
2018-12-16T00:00:53.798Z,21.35
2018-12-16T00:01:53.788Z,21.33
2018-12-16T00:02:53.776Z,21.33
2018-12-16T00:03:53.857Z,21.29
2018-12-16T00:04:53.751Z,21.37
2018-12-16T00:05:53.744Z,21.29
2018-12-16T00:06:53.728Z,21.33
2018-12-16T00:07:53.716Z,21.28
2018-12-16T00:08:53.712Z,21.30
2018-12-16T00:09:53.879Z,21.38
2018-12-16T00:10:53.688Z,21.30
2018-12-16T00:11:53.673Z,21.30
2018-12-16T00:12:53.664Z,21.33
2018-12-16T00:13:53.655Z,21.35
2018-12-16T00:14:53.649Z,21.32
2018-12-16T00:15:53.738Z,21.38
2018-12-16T00:16:53.623Z,21.38
2018-12-16T00:17:53.612Z,21.30
2018-12-16T00:18:53.600Z,21.29
2018-12-16T00:19:53.594Z,21.29
2018-12-16T00:20:53.577Z,21.32
2018-12-16T00:21:53.759Z,21.28
2018-12-16T00:22:53.553Z,21.29
2018-12-16T00:23:53.558Z,21.25
2018-12-16T00:24:53.535Z,21.26
2018-12-16T00:25:53.528Z,21.23
2018-12-16T00:26:53.513Z,21.25
2018-12-16T00:27:53.610Z,21.22
2018-12-16T00:28:53.490Z,21.26
2018-12-16T00:29:53.482Z,21.20
2018-12-16T00:30:53.466Z,21.25
2018-12-16T00:31:53.457Z,21.25
2018-12-16T00:32:53.448Z,21.23
2018-12-16T00:33:53.600Z,21.22
2018-12-16T00:34:53.427Z,21.30
2018-12-16T00:35:53.415Z,21.20
2018-12-16T00:36:53.404Z,21.20
2018-12-16T00:37:53.388Z,21.23
2018-12-16T00:38:53.381Z,21.17
2018-12-16T00:39:53.641Z,21.20
2018-12-16T00:40:53.361Z,21.17
2018-12-16T00:41:53.349Z,21.07
2018-12-16T00:42:53.338Z,21.05
2018-12-16T00:43:53.324Z,20.96
2018-12-16T00:44:53.316Z,21.00
2018-12-16T00:45:53.409Z,20.96
2018-12-16T00:46:53.294Z,20.95
2018-12-16T00:47:53.282Z,20.98
2018-12-16T00:48:53.286Z,20.96
2018-12-16T00:49:53.261Z,20.93
2018-12-16T00:50:53.248Z,20.92
2018-12-16T00:51:53.344Z,20.92
2018-12-16T00:52:53.230Z,21.10
2018-12-16T00:53:53.217Z,20.98
2018-12-16T00:54:53.207Z,20.90
2018-12-16T00:55:53.191Z,20.89
2018-12-16T00:56:53.181Z,20.89
2018-12-16T00:57:53.462Z,21.08
2018-12-16T00:58:53.162Z,20.93
2018-12-16T00:59:53.152Z,20.98
2018-12-16T01:00:53.140Z,20.98
2018-12-16T01:01:53.127Z,21.01
2018-12-16T01:02:53.120Z,20.92
2018-12-16T01:03:53.217Z,20.88
2018-12-16T01:04:53.093Z,20.93
2018-12-16T01:05:53.082Z,20.96
2018-12-16T01:06:53.071Z,20.96
2018-12-16T01:07:53.072Z,20.86
2018-12-16T01:08:53.049Z,20.86
2018-12-16T01:09:53.151Z,20.90
2018-12-16T01:10:53.028Z,20.95
2018-12-16T01:11:53.015Z,20.93
2018-12-16T01:12:53.003Z,20.80
2018-12-16T01:13:52.997Z,20.77
2018-12-16T01:14:52.983Z,20.78
2018-12-16T01:15:53.270Z,20.78
2018-12-16T01:16:52.962Z,20.82
2018-12-16T01:17:52.954Z,20.82
2018-12-16T01:18:52.939Z,20.78
2018-12-16T01:19:52.928Z,20.78
2018-12-16T01:20:52.916Z,20.82
2018-12-16T01:21:53.006Z,20.80
2018-12-16T01:22:52.896Z,20.80
2018-12-16T01:23:52.889Z,20.85
2018-12-16T01:24:52.878Z,20.77
2018-12-16T01:25:52.862Z,20.80
2018-12-16T01:26:52.851Z,20.77
2018-12-16T01:27:52.956Z,20.74
2018-12-16T01:28:52.835Z,20.78
2018-12-16T01:29:52.821Z,20.82
2018-12-16T01:30:52.816Z,20.80
2018-12-16T01:31:52.805Z,20.78
2018-12-16T01:32:52.808Z,20.80
2018-12-16T01:33:52.902Z,20.78
2018-12-16T01:34:52.765Z,20.82
2018-12-16T01:35:52.757Z,20.77
2018-12-16T01:36:52.746Z,20.75
2018-12-16T01:37:52.734Z,20.74
2018-12-16T01:38:52.723Z,20.77
2018-12-16T01:39:53.154Z,20.73
2018-12-16T01:40:52.702Z,20.64
2018-12-16T01:41:52.690Z,20.70
2018-12-16T01:42:52.679Z,20.70
2018-12-16T01:43:52.669Z,20.71
2018-12-16T01:44:52.658Z,20.63
2018-12-16T01:45:52.827Z,20.68
2018-12-16T01:46:52.635Z,20.66
2018-12-16T01:47:52.625Z,20.64
2018-12-16T01:48:52.613Z,20.59
2018-12-16T01:49:52.603Z,20.56
2018-12-16T01:50:52.591Z,20.58
2018-12-16T01:51:52.692Z,20.60
2018-12-16T01:52:52.569Z,20.53
2018-12-16T01:53:52.558Z,20.50
2018-12-16T01:54:52.547Z,20.50
2018-12-16T01:55:52.534Z,20.52
2018-12-16T01:56:52.522Z,20.50
2018-12-16T01:57:52.620Z,20.48
2018-12-16T01:58:52.503Z,20.58
2018-12-16T01:59:52.493Z,20.59
2018-12-16T02:00:52.480Z,20.55
2018-12-16T02:01:52.470Z,20.63
2018-12-16T02:02:52.460Z,20.63
2018-12-16T02:03:52.621Z,20.56
2018-12-16T02:04:52.437Z,20.63
2018-12-16T02:05:52.426Z,20.58
2018-12-16T02:06:52.417Z,20.63
2018-12-16T02:07:52.401Z,20.64
2018-12-16T02:08:52.391Z,20.67
2018-12-16T02:09:52.526Z,20.66
2018-12-16T02:10:52.367Z,20.56
2018-12-16T02:11:52.361Z,20.66
2018-12-16T02:12:52.347Z,20.60
2018-12-16T02:13:52.338Z,20.68
2018-12-16T02:14:52.328Z,20.68
2018-12-16T02:15:52.429Z,20.71
2018-12-16T02:16:52.307Z,20.67
2018-12-16T02:17:52.294Z,20.75
2018-12-16T02:18:52.281Z,20.68
2018-12-16T02:19:52.269Z,20.75
2018-12-16T02:20:52.259Z,20.78
2018-12-16T02:21:52.355Z,20.77
2018-12-16T02:22:56.863Z,20.77
2018-12-16T02:23:53.225Z,20.75
2018-12-16T02:24:52.231Z,20.82
2018-12-16T02:25:52.208Z,20.78
2018-12-16T02:26:52.196Z,20.77
2018-12-16T02:27:52.361Z,20.77
2018-12-16T02:28:52.175Z,20.78
2018-12-16T02:29:52.167Z,20.78
2018-12-16T02:30:52.152Z,20.83
2018-12-16T02:31:52.139Z,20.78
2018-12-16T02:32:52.135Z,20.83
2018-12-16T02:33:52.225Z,20.80
2018-12-16T02:34:52.110Z,20.82
2018-12-16T02:35:52.095Z,20.83
2018-12-16T02:36:52.088Z,20.74
2018-12-16T02:37:52.187Z,20.77
2018-12-16T02:38:52.063Z,20.78
2018-12-16T02:39:52.405Z,20.85
2018-12-16T02:40:52.042Z,20.88
2018-12-16T02:41:52.029Z,20.89
2018-12-16T02:42:52.020Z,20.92
2018-12-16T02:43:52.078Z,20.89
2018-12-16T02:44:51.998Z,20.93
2018-12-16T02:45:52.162Z,20.93
2018-12-16T02:46:51.977Z,20.90
2018-12-16T02:47:51.974Z,21.00
2018-12-16T02:48:51.951Z,21.01
2018-12-16T02:49:51.940Z,21.00
2018-12-16T02:50:51.934Z,20.92
2018-12-16T02:51:52.244Z,20.93
2018-12-16T02:52:51.908Z,20.89
2018-12-16T02:53:51.896Z,20.98
2018-12-16T02:54:51.886Z,20.98
2018-12-16T02:55:51.916Z,20.95
2018-12-16T02:56:51.864Z,20.98
2018-12-16T02:57:51.959Z,20.96
2018-12-16T02:58:51.841Z,21.00
2018-12-16T02:59:51.836Z,20.92
2018-12-16T03:00:51.820Z,21.03
2018-12-16T03:01:51.811Z,20.96
2018-12-16T03:02:51.797Z,20.93
2018-12-16T03:03:52.066Z,20.96
2018-12-16T03:04:51.780Z,21.00
2018-12-16T03:05:51.766Z,20.96
2018-12-16T03:06:51.768Z,21.00
2018-12-16T03:07:51.744Z,20.80
2018-12-16T03:08:51.732Z,20.96
2018-12-16T03:09:51.937Z,21.00
2018-12-16T03:10:51.714Z,20.95
2018-12-16T03:11:51.703Z,20.93
2018-12-16T03:12:51.689Z,20.93
2018-12-16T03:13:51.677Z,20.90
2018-12-16T03:14:51.665Z,20.93
2018-12-16T03:15:51.756Z,20.92
2018-12-16T03:16:51.651Z,20.88
2018-12-16T03:17:51.633Z,20.95
2018-12-16T03:18:51.628Z,20.92
2018-12-16T03:19:51.612Z,20.93
2018-12-16T03:20:51.605Z,20.88
2018-12-16T03:21:51.875Z,20.90
2018-12-16T03:22:51.581Z,20.89
2018-12-16T03:23:51.573Z,20.83
2018-12-16T03:24:51.560Z,20.77
2018-12-16T03:25:51.546Z,20.82
2018-12-16T03:26:51.543Z,20.80
2018-12-16T03:27:51.744Z,20.75
2018-12-16T03:28:51.515Z,20.74
2018-12-16T03:29:51.510Z,20.80
2018-12-16T03:30:51.496Z,20.71
2018-12-16T03:31:51.481Z,20.80
2018-12-16T03:32:51.474Z,20.75
2018-12-16T03:33:51.569Z,20.71
2018-12-16T03:34:51.449Z,20.73
2018-12-16T03:35:51.436Z,20.68
2018-12-16T03:36:51.425Z,20.71
2018-12-16T03:37:51.416Z,20.67
2018-12-16T03:38:51.405Z,20.68
2018-12-16T03:39:51.514Z,20.67
2018-12-16T03:40:51.383Z,20.66
2018-12-16T03:41:51.381Z,20.59
2018-12-16T03:42:51.367Z,20.64
2018-12-16T03:43:51.354Z,20.56
2018-12-16T03:44:51.348Z,20.53
2018-12-16T03:45:51.532Z,20.63
2018-12-16T03:46:51.322Z,20.53
2018-12-16T03:47:51.307Z,20.49
2018-12-16T03:48:51.295Z,20.48
2018-12-16T03:49:51.290Z,20.49
2018-12-16T03:50:51.276Z,20.49
2018-12-16T03:51:51.461Z,20.50
2018-12-16T03:52:51.255Z,20.48
2018-12-16T03:53:51.241Z,20.52
2018-12-16T03:54:51.234Z,20.55
2018-12-16T03:55:51.222Z,20.56
2018-12-16T03:56:51.209Z,20.53
2018-12-16T03:57:51.306Z,20.53
2018-12-16T03:58:51.191Z,20.55
2018-12-16T03:59:51.187Z,20.53
2018-12-16T04:00:51.165Z,20.52
2018-12-16T04:01:51.161Z,20.52
2018-12-16T04:02:51.148Z,20.46
2018-12-16T04:03:51.307Z,20.53
2018-12-16T04:04:51.127Z,20.50
2018-12-16T04:05:51.111Z,20.48
2018-12-16T04:06:51.101Z,20.55
2018-12-16T04:07:51.106Z,20.48
2018-12-16T04:08:51.082Z,20.58
2018-12-16T04:09:51.366Z,20.52
2018-12-16T04:10:51.052Z,20.53
2018-12-16T04:11:51.040Z,20.50
2018-12-16T04:12:51.035Z,20.48
2018-12-16T04:13:51.047Z,20.53
2018-12-16T04:14:51.014Z,20.44
2018-12-16T04:15:51.104Z,20.48
2018-12-16T04:16:50.992Z,20.55
2018-12-16T04:17:50.976Z,20.48
2018-12-16T04:18:50.968Z,20.44
2018-12-16T04:19:50.953Z,20.44
2018-12-16T04:20:50.951Z,20.42
2018-12-16T04:21:51.116Z,20.49
2018-12-16T04:22:50.937Z,20.40
2018-12-16T04:23:50.913Z,20.48
2018-12-16T04:24:50.900Z,20.42
2018-12-16T04:25:50.887Z,20.48
2018-12-16T04:26:50.879Z,20.49
2018-12-16T04:27:50.971Z,20.49
2018-12-16T04:28:50.869Z,20.42
2018-12-16T04:29:50.848Z,20.49
2018-12-16T04:30:50.837Z,20.48
2018-12-16T04:31:50.831Z,20.44
2018-12-16T04:32:50.810Z,20.42
2018-12-16T04:33:50.899Z,20.50
2018-12-16T04:34:50.793Z,20.48
2018-12-16T04:35:50.781Z,20.48
2018-12-16T04:36:50.769Z,20.42
2018-12-16T04:37:50.761Z,20.40
2018-12-16T04:38:50.749Z,20.40
2018-12-16T04:39:50.944Z,20.46
2018-12-16T04:40:50.734Z,20.46
2018-12-16T04:41:50.717Z,20.44
2018-12-16T04:42:50.706Z,20.49
2018-12-16T04:43:50.697Z,20.50
2018-12-16T04:44:50.679Z,20.46
2018-12-16T04:45:50.850Z,20.49
2018-12-16T04:46:50.658Z,20.48
2018-12-16T04:47:50.647Z,20.42
2018-12-16T04:48:50.640Z,20.44
2018-12-16T04:49:50.628Z,20.49
2018-12-16T04:50:50.618Z,20.42
2018-12-16T04:51:50.712Z,20.44
2018-12-16T04:52:50.599Z,20.53
2018-12-16T04:53:50.581Z,20.50
2018-12-16T04:54:50.573Z,20.46
2018-12-16T04:55:50.561Z,20.49
2018-12-16T04:56:50.558Z,20.55
2018-12-16T04:57:50.738Z,20.49
2018-12-16T04:58:50.528Z,20.52
2018-12-16T04:59:50.519Z,20.52
2018-12-16T05:00:50.507Z,20.48
2018-12-16T05:01:50.495Z,20.50
2018-12-16T05:02:50.484Z,20.49
2018-12-16T05:03:50.763Z,20.44
2018-12-16T05:04:50.464Z,20.49
2018-12-16T05:05:50.454Z,20.50
2018-12-16T05:06:50.454Z,20.55
2018-12-16T05:07:50.431Z,20.53
2018-12-16T05:08:50.419Z,20.49
2018-12-16T05:09:50.522Z,20.52
2018-12-16T05:10:50.400Z,20.50
2018-12-16T05:11:50.393Z,20.52
2018-12-16T05:12:50.375Z,20.58
2018-12-16T05:13:50.366Z,20.63
2018-12-16T05:14:50.355Z,20.59
2018-12-16T05:15:50.440Z,20.63
2018-12-16T05:16:50.331Z,20.67
2018-12-16T05:17:50.321Z,20.70
2018-12-16T05:18:50.311Z,20.64
2018-12-16T05:19:50.299Z,20.64
2018-12-16T05:20:50.288Z,20.63
2018-12-16T05:21:50.395Z,20.64
2018-12-16T05:22:50.266Z,20.64
2018-12-16T05:23:50.258Z,20.60
2018-12-16T05:24:50.247Z,20.60
2018-12-16T05:25:50.232Z,20.71
2018-12-16T05:26:50.219Z,20.67
2018-12-16T05:27:50.496Z,20.74
2018-12-16T05:28:50.202Z,20.66
2018-12-16T05:29:50.191Z,20.74
2018-12-16T05:30:50.178Z,20.73
2018-12-16T05:31:50.168Z,20.73
2018-12-16T05:32:50.156Z,20.71
2018-12-16T05:33:50.247Z,20.80
2018-12-16T05:34:50.136Z,20.80
2018-12-16T05:35:50.127Z,20.74
2018-12-16T05:36:50.112Z,20.78
2018-12-16T05:37:50.098Z,20.82
2018-12-16T05:38:50.086Z,20.80
2018-12-16T05:39:50.186Z,20.82
2018-12-16T05:40:50.065Z,20.78
2018-12-16T05:41:50.054Z,20.92
2018-12-16T05:42:50.042Z,20.89
2018-12-16T05:43:50.033Z,20.93
2018-12-16T05:44:50.020Z,20.93
2018-12-16T05:45:50.265Z,21.00
2018-12-16T05:46:49.998Z,20.92
2018-12-16T05:47:49.990Z,21.01
2018-12-16T05:48:49.978Z,20.92
2018-12-16T05:49:49.970Z,21.08
2018-12-16T05:50:49.954Z,20.96
2018-12-16T05:51:50.116Z,21.05
2018-12-16T05:52:49.932Z,20.93
2018-12-16T05:53:49.926Z,20.89
2018-12-16T05:54:49.923Z,20.95
2018-12-16T05:55:49.898Z,20.96
2018-12-16T05:56:49.892Z,21.01
2018-12-16T05:57:49.979Z,20.90
2018-12-16T05:58:49.865Z,21.07
2018-12-16T05:59:49.858Z,20.92
2018-12-16T06:00:49.849Z,20.90
2018-12-16T06:01:49.838Z,20.92
2018-12-16T06:02:49.824Z,20.90
2018-12-16T06:03:50.039Z,21.05
2018-12-16T06:04:49.801Z,20.93
2018-12-16T06:05:49.789Z,20.96
2018-12-16T06:06:49.779Z,20.98
2018-12-16T06:07:49.775Z,20.98
2018-12-16T06:08:49.763Z,21.03
2018-12-16T06:09:49.968Z,21.05
2018-12-16T06:10:49.742Z,21.05
2018-12-16T06:11:49.738Z,20.98
2018-12-16T06:12:49.720Z,20.89
2018-12-16T06:13:49.709Z,21.08
2018-12-16T06:14:49.701Z,20.92
2018-12-16T06:15:49.812Z,21.03
2018-12-16T06:16:49.676Z,20.92
2018-12-16T06:17:50.320Z,21.03
2018-12-16T06:18:49.653Z,20.96
2018-12-16T06:19:49.650Z,21.11
2018-12-16T06:20:49.636Z,21.05
2018-12-16T06:21:49.898Z,21.20
2018-12-16T06:22:49.612Z,21.05
2018-12-16T06:23:55.319Z,21.19
2018-12-16T06:24:50.599Z,21.08
2018-12-16T06:25:49.576Z,21.15
2018-12-16T06:26:49.625Z,21.14
2018-12-16T06:27:49.692Z,21.13
2018-12-16T06:28:49.545Z,21.17
2018-12-16T06:29:50.324Z,21.14
2018-12-16T06:30:49.521Z,21.15
2018-12-16T06:31:49.520Z,21.17
2018-12-16T06:32:49.502Z,21.15
2018-12-16T06:33:50.037Z,21.19
2018-12-16T06:34:49.475Z,21.17
2018-12-16T06:35:49.467Z,21.22
2018-12-16T06:36:49.452Z,21.26
2018-12-16T06:37:49.442Z,21.20
2018-12-16T06:38:49.438Z,21.32
2018-12-16T06:39:49.708Z,21.28
2018-12-16T06:40:49.410Z,21.35
2018-12-16T06:41:49.422Z,21.25
2018-12-16T06:42:49.385Z,21.23
2018-12-16T06:43:49.382Z,21.28
2018-12-16T06:44:49.370Z,21.28
2018-12-16T06:45:49.635Z,21.29
2018-12-16T06:46:49.344Z,21.30
2018-12-16T06:47:49.348Z,21.25
2018-12-16T06:48:49.326Z,21.32
2018-12-16T06:49:49.321Z,21.35
2018-12-16T06:50:49.295Z,21.37
2018-12-16T06:51:49.408Z,21.40
2018-12-16T06:52:49.286Z,21.38
2018-12-16T06:53:49.266Z,21.44
2018-12-16T06:54:49.258Z,21.53
2018-12-16T06:55:49.243Z,21.54
2018-12-16T06:56:49.233Z,21.54
2018-12-16T06:57:49.396Z,21.56
2018-12-16T06:58:49.209Z,21.59
2018-12-16T06:59:49.199Z,21.62
2018-12-16T07:00:49.188Z,21.70
2018-12-16T07:01:49.179Z,21.74
2018-12-16T07:02:49.168Z,21.72
2018-12-16T07:03:49.363Z,21.81
2018-12-16T07:04:49.144Z,21.75
2018-12-16T07:05:49.145Z,21.92
2018-12-16T07:06:49.127Z,21.84
2018-12-16T07:07:49.117Z,21.96
2018-12-16T07:08:49.102Z,21.88
2018-12-16T07:09:49.202Z,22.03
2018-12-16T07:10:49.079Z,22.04
2018-12-16T07:11:49.068Z,22.01
2018-12-16T07:12:49.094Z,22.04
2018-12-16T07:13:49.045Z,22.06
2018-12-16T07:14:49.036Z,22.10
2018-12-16T07:15:49.273Z,22.12
2018-12-16T07:16:49.017Z,22.06
2018-12-16T07:17:49.004Z,22.12
2018-12-16T07:18:49.006Z,22.14
2018-12-16T07:19:48.982Z,22.21
2018-12-16T07:20:48.972Z,22.07
2018-12-16T07:21:49.066Z,22.16
2018-12-16T07:22:48.947Z,22.26
2018-12-16T07:23:48.938Z,22.21
2018-12-16T07:24:48.925Z,22.22
2018-12-16T07:25:48.936Z,22.21
2018-12-16T07:26:48.905Z,22.25
2018-12-16T07:27:49.088Z,22.22
2018-12-16T07:28:48.912Z,22.21
2018-12-16T07:29:48.875Z,22.19
2018-12-16T07:30:48.881Z,22.31
2018-12-16T07:31:48.851Z,22.30
2018-12-16T07:32:48.841Z,22.21
2018-12-16T07:33:48.962Z,22.18
2018-12-16T07:34:48.822Z,22.10
2018-12-16T07:35:48.812Z,22.15
2018-12-16T07:36:48.796Z,22.19
2018-12-16T07:37:48.786Z,22.22
2018-12-16T07:38:48.788Z,22.25
2018-12-16T07:39:48.858Z,22.22
2018-12-16T07:40:48.755Z,22.23
2018-12-16T07:41:48.753Z,22.23
2018-12-16T07:42:48.738Z,22.18
2018-12-16T07:43:48.720Z,22.21
2018-12-16T07:44:48.710Z,22.25
2018-12-16T07:45:48.800Z,22.25
2018-12-16T07:46:48.718Z,22.28
2018-12-16T07:47:48.696Z,22.31
2018-12-16T07:48:48.666Z,22.28
2018-12-16T07:49:48.692Z,22.25
2018-12-16T07:50:48.668Z,22.33
2018-12-16T07:51:48.937Z,22.36
2018-12-16T07:52:48.631Z,22.31
2018-12-16T07:53:48.628Z,22.26
2018-12-16T07:54:48.600Z,22.25
2018-12-16T07:55:48.589Z,22.23
2018-12-16T07:56:48.583Z,22.31
2018-12-16T07:57:48.741Z,22.25
2018-12-16T07:58:48.586Z,22.33
2018-12-16T07:59:48.545Z,22.33
2018-12-16T08:00:48.530Z,22.38
2018-12-16T08:01:48.525Z,22.38
2018-12-16T08:02:48.514Z,22.38
2018-12-16T08:03:48.610Z,22.40
2018-12-16T08:04:48.493Z,22.43
2018-12-16T08:05:48.480Z,22.38
2018-12-16T08:06:48.472Z,22.36
2018-12-16T08:07:48.460Z,22.40
2018-12-16T08:08:48.450Z,22.40
2018-12-16T08:09:48.549Z,22.41
2018-12-16T08:10:48.427Z,22.41
2018-12-16T08:11:48.417Z,22.46
2018-12-16T08:12:48.404Z,22.51
2018-12-16T08:13:48.392Z,22.53
2018-12-16T08:14:48.383Z,22.55
2018-12-16T08:15:48.645Z,22.49
2018-12-16T08:16:48.358Z,22.47
2018-12-16T08:17:48.351Z,22.58
2018-12-16T08:18:48.339Z,22.55
2018-12-16T08:19:48.329Z,22.58
2018-12-16T08:20:48.319Z,22.62
2018-12-16T08:21:48.408Z,22.63
2018-12-16T08:22:48.301Z,22.61
2018-12-16T08:23:48.283Z,22.67
2018-12-16T08:24:48.275Z,22.63
2018-12-16T08:25:48.261Z,22.73
2018-12-16T08:26:48.255Z,22.73
2018-12-16T08:27:48.441Z,22.78
2018-12-16T08:28:48.235Z,22.89
2018-12-16T08:29:48.222Z,22.95
2018-12-16T08:30:48.210Z,23.02
2018-12-16T08:31:48.200Z,23.20
2018-12-16T08:32:48.188Z,23.16
2018-12-16T08:33:48.489Z,23.26
2018-12-16T08:34:48.166Z,23.21
2018-12-16T08:35:48.155Z,23.32
2018-12-16T08:36:48.144Z,23.26
2018-12-16T08:37:48.139Z,23.47
2018-12-16T08:38:48.124Z,23.52
2018-12-16T08:39:48.213Z,23.58
2018-12-16T08:40:48.105Z,23.56
2018-12-16T08:41:48.090Z,23.67
2018-12-16T08:42:48.080Z,23.71
2018-12-16T08:43:48.065Z,23.70
2018-12-16T08:44:48.062Z,23.77
2018-12-16T08:45:48.144Z,23.77
2018-12-16T08:46:48.033Z,23.84
2018-12-16T08:47:48.025Z,23.76
2018-12-16T08:48:48.015Z,23.79
2018-12-16T08:49:48.007Z,23.66
2018-12-16T08:50:48.034Z,23.74
2018-12-16T08:51:48.159Z,23.84
2018-12-16T08:52:47.972Z,23.82
2018-12-16T08:53:47.958Z,23.91
2018-12-16T08:54:47.948Z,23.92
2018-12-16T08:55:47.939Z,23.91
2018-12-16T08:56:47.927Z,23.92
2018-12-16T08:57:48.060Z,23.96
2018-12-16T08:58:47.903Z,23.99
2018-12-16T08:59:47.900Z,23.94
2018-12-16T09:00:47.886Z,23.96
2018-12-16T09:01:47.875Z,24.13
2018-12-16T09:02:47.869Z,24.24
2018-12-16T09:03:47.963Z,24.43
2018-12-16T09:04:47.841Z,24.48
2018-12-16T09:05:47.831Z,24.48
2018-12-16T09:06:47.821Z,24.53
2018-12-16T09:07:47.855Z,24.53
2018-12-16T09:08:47.798Z,24.58
2018-12-16T09:09:48.111Z,24.56
2018-12-16T09:10:47.789Z,24.51
2018-12-16T09:11:47.765Z,24.56
2018-12-16T09:12:47.754Z,24.68
2018-12-16T09:13:47.765Z,24.53
2018-12-16T09:14:47.735Z,24.59
2018-12-16T09:15:47.833Z,24.58
2018-12-16T09:16:47.710Z,24.61
2018-12-16T09:17:47.700Z,24.68
2018-12-16T09:18:47.688Z,24.51
2018-12-16T09:19:47.683Z,24.63
2018-12-16T09:20:47.671Z,24.51
2018-12-16T09:21:47.988Z,24.55
2018-12-16T09:22:47.649Z,24.53
2018-12-16T09:23:47.636Z,24.51
2018-12-16T09:24:47.621Z,24.48
2018-12-16T09:25:47.618Z,24.50
2018-12-16T09:26:47.603Z,24.50
2018-12-16T09:27:47.904Z,24.46
2018-12-16T09:28:47.581Z,24.43
2018-12-16T09:29:47.570Z,24.37
2018-12-16T09:30:47.561Z,24.40
2018-12-16T09:31:47.551Z,24.50
2018-12-16T09:32:47.538Z,24.50
2018-12-16T09:33:47.635Z,24.53
2018-12-16T09:34:47.514Z,24.62
2018-12-16T09:35:47.501Z,24.63
2018-12-16T09:36:47.493Z,24.75
2018-12-16T09:37:47.481Z,24.75
2018-12-16T09:38:47.473Z,24.79
2018-12-16T09:39:47.569Z,24.77
2018-12-16T09:40:47.478Z,24.74
2018-12-16T09:41:47.438Z,24.82
2018-12-16T09:42:47.433Z,24.75
2018-12-16T09:43:47.416Z,24.88
2018-12-16T09:44:47.407Z,24.88
2018-12-16T09:45:49.586Z,24.96
2018-12-16T09:46:47.385Z,24.99
2018-12-16T09:47:47.375Z,25.18
2018-12-16T09:48:47.362Z,25.16
2018-12-16T09:49:47.349Z,25.04
2018-12-16T09:50:47.339Z,24.99
2018-12-16T09:51:47.505Z,25.06
2018-12-16T09:52:47.315Z,25.03
2018-12-16T09:53:47.310Z,24.99
2018-12-16T09:54:47.298Z,25.09
2018-12-16T09:55:47.292Z,25.06
2018-12-16T09:56:47.280Z,25.03
2018-12-16T09:57:47.380Z,25.04
2018-12-16T09:58:47.254Z,25.01
2018-12-16T09:59:47.242Z,25.07
2018-12-16T10:00:47.229Z,25.04
2018-12-16T10:01:47.226Z,25.07
2018-12-16T10:02:47.210Z,25.09
2018-12-16T10:03:47.312Z,25.12
2018-12-16T10:04:47.193Z,25.18
2018-12-16T10:05:47.183Z,25.16
2018-12-16T10:06:47.168Z,25.14
2018-12-16T10:07:47.158Z,25.22
2018-12-16T10:08:47.147Z,25.26
2018-12-16T10:09:47.317Z,25.24
2018-12-16T10:10:47.121Z,25.25
2018-12-16T10:11:47.113Z,25.31
2018-12-16T10:12:47.102Z,25.34
2018-12-16T10:13:47.090Z,25.36
2018-12-16T10:14:47.085Z,25.30
2018-12-16T10:15:47.170Z,25.52
2018-12-16T10:16:47.059Z,25.43
2018-12-16T10:17:47.049Z,25.41
2018-12-16T10:18:47.036Z,25.51
2018-12-16T10:19:47.026Z,25.49
2018-12-16T10:20:47.017Z,25.49
2018-12-16T10:21:47.120Z,25.61
2018-12-16T10:22:46.991Z,25.55
2018-12-16T10:23:46.984Z,25.61
2018-12-16T10:24:51.363Z,25.52
2018-12-16T10:25:46.956Z,25.59
2018-12-16T10:26:46.948Z,25.51
2018-12-16T10:27:47.226Z,25.56
2018-12-16T10:28:46.925Z,25.48
2018-12-16T10:29:46.915Z,25.54
2018-12-16T10:30:46.905Z,25.56
2018-12-16T10:31:46.893Z,25.49
2018-12-16T10:32:46.883Z,25.51
2018-12-16T10:33:47.065Z,25.36
2018-12-16T10:34:46.867Z,25.31
2018-12-16T10:35:46.853Z,25.31
2018-12-16T10:36:46.842Z,25.37
2018-12-16T10:37:46.830Z,25.36
2018-12-16T10:38:46.822Z,25.46
2018-12-16T10:39:46.939Z,25.48
2018-12-16T10:40:46.795Z,25.44
2018-12-16T10:41:46.785Z,25.44
2018-12-16T10:42:46.775Z,25.48
2018-12-16T10:43:46.763Z,25.49
2018-12-16T10:44:46.752Z,25.41
2018-12-16T10:45:46.840Z,25.43
2018-12-16T10:46:46.733Z,25.41
2018-12-16T10:47:46.723Z,25.33
2018-12-16T10:48:46.710Z,25.31
2018-12-16T10:49:46.697Z,25.22
2018-12-16T10:50:46.686Z,25.21
2018-12-16T10:51:46.852Z,25.09
2018-12-16T10:52:46.669Z,25.03
2018-12-16T10:53:46.655Z,24.99
2018-12-16T10:54:46.645Z,24.89
2018-12-16T10:55:46.636Z,24.85
2018-12-16T10:56:46.629Z,24.89
2018-12-16T10:57:46.809Z,24.71
2018-12-16T10:58:46.599Z,24.77
2018-12-16T10:59:46.591Z,24.69
2018-12-16T11:00:46.580Z,24.68
2018-12-16T11:01:46.571Z,24.71
2018-12-16T11:02:46.558Z,24.65
2018-12-16T11:03:46.660Z,24.56
2018-12-16T11:04:46.543Z,24.59
2018-12-16T11:05:46.529Z,24.65
2018-12-16T11:06:46.520Z,24.53
2018-12-16T11:07:46.502Z,24.50
2018-12-16T11:08:46.498Z,24.51
2018-12-16T11:09:46.600Z,24.50
2018-12-16T11:10:46.472Z,24.43
2018-12-16T11:11:46.459Z,24.55
2018-12-16T11:12:46.448Z,24.37
2018-12-16T11:13:46.442Z,24.34
2018-12-16T11:14:46.428Z,24.31
2018-12-16T11:15:46.637Z,24.26
2018-12-16T11:16:46.405Z,24.22
2018-12-16T11:17:46.394Z,24.26
2018-12-16T11:18:46.384Z,24.22
2018-12-16T11:19:46.373Z,24.11
2018-12-16T11:20:46.362Z,24.13
2018-12-16T11:21:46.465Z,24.19
2018-12-16T11:22:46.341Z,24.16
2018-12-16T11:23:46.329Z,24.10
2018-12-16T11:24:46.318Z,24.11
2018-12-16T11:25:46.314Z,24.03
2018-12-16T11:26:46.301Z,24.11
2018-12-16T11:27:46.487Z,23.99
2018-12-16T11:28:46.279Z,23.99
2018-12-16T11:29:46.268Z,23.99
2018-12-16T11:30:46.259Z,24.06
2018-12-16T11:31:46.242Z,24.04
2018-12-16T11:32:46.235Z,24.00
2018-12-16T11:33:46.352Z,24.00
2018-12-16T11:34:46.215Z,24.03
2018-12-16T11:35:46.203Z,23.95
2018-12-16T11:36:46.191Z,24.01
2018-12-16T11:37:46.186Z,23.95
2018-12-16T11:38:46.168Z,24.00
2018-12-16T11:39:46.256Z,24.00
2018-12-16T11:40:46.151Z,23.92
2018-12-16T11:41:46.138Z,23.96
2018-12-16T11:42:46.134Z,23.95
2018-12-16T11:43:46.119Z,23.86
2018-12-16T11:44:46.105Z,23.82
2018-12-16T11:45:46.428Z,23.96
2018-12-16T11:46:46.082Z,23.94
2018-12-16T11:47:46.073Z,24.03
2018-12-16T11:48:46.064Z,23.94
2018-12-16T11:49:46.047Z,24.03
2018-12-16T11:50:46.036Z,24.14
2018-12-16T11:51:46.319Z,24.11
2018-12-16T11:52:46.015Z,24.11
2018-12-16T11:53:46.005Z,24.28
2018-12-16T11:54:45.993Z,24.40
2018-12-16T11:55:45.991Z,24.43
2018-12-16T11:56:45.972Z,24.34
2018-12-16T11:57:46.070Z,24.31
2018-12-16T11:58:45.951Z,24.25
2018-12-16T11:59:45.945Z,24.26
2018-12-16T12:00:45.932Z,24.14
2018-12-16T12:01:45.921Z,24.21
2018-12-16T12:02:45.906Z,24.21
2018-12-16T12:03:45.997Z,24.25
2018-12-16T12:04:45.889Z,24.24
2018-12-16T12:05:45.875Z,24.16
2018-12-16T12:06:45.864Z,24.00
2018-12-16T12:07:45.853Z,24.01
2018-12-16T12:08:45.843Z,23.91
2018-12-16T12:09:46.031Z,23.76
2018-12-16T12:10:45.819Z,23.81
2018-12-16T12:11:45.810Z,23.77
2018-12-16T12:12:45.801Z,23.81
2018-12-16T12:13:45.798Z,23.81
2018-12-16T12:14:45.777Z,23.86
2018-12-16T12:15:45.878Z,23.79
2018-12-16T12:16:45.759Z,23.77
2018-12-16T12:17:45.745Z,23.71
2018-12-16T12:18:45.733Z,23.69
2018-12-16T12:19:45.723Z,23.63
2018-12-16T12:20:45.716Z,23.56
2018-12-16T12:21:45.804Z,23.49
2018-12-16T12:22:45.690Z,23.48
2018-12-16T12:23:45.685Z,23.51
2018-12-16T12:24:45.671Z,23.55
2018-12-16T12:25:45.657Z,23.70
2018-12-16T12:26:45.647Z,23.74
2018-12-16T12:27:45.862Z,23.77
2018-12-16T12:28:45.630Z,23.86
2018-12-16T12:29:45.616Z,23.73
2018-12-16T12:30:45.608Z,23.71
2018-12-16T12:31:45.593Z,23.73
2018-12-16T12:32:48.977Z,23.64
2018-12-16T12:33:45.674Z,23.54
2018-12-16T12:34:45.560Z,23.59
2018-12-16T12:35:45.553Z,23.55
2018-12-16T12:36:45.542Z,23.47
2018-12-16T12:37:45.534Z,23.45
2018-12-16T12:38:45.526Z,23.47
2018-12-16T12:39:45.744Z,23.47
2018-12-16T12:40:45.499Z,23.48
2018-12-16T12:41:45.495Z,23.44
2018-12-16T12:42:45.480Z,23.49
2018-12-16T12:43:45.467Z,23.51
2018-12-16T12:44:45.456Z,23.49
2018-12-16T12:45:45.546Z,23.48
2018-12-16T12:46:45.431Z,23.56
2018-12-16T12:47:45.423Z,23.62
2018-12-16T12:48:45.413Z,23.67
2018-12-16T12:49:45.405Z,23.71
2018-12-16T12:50:45.390Z,23.74
2018-12-16T12:51:45.538Z,23.91
2018-12-16T12:52:45.365Z,23.92